sensor_id;sensor_type;location;lat;lon;timestamp;P1;durP1;ratioP1;P2;durP2;ratioP2
5878;SDS011;2965;42.640;23.370;2023-01-13T05:03:16;6.50;;;6.10;;
5878;SDS011;2965;42.640;23.370;2023-01-13T05:05:42;10.80;;;7.70;;
5878;SDS011;2965;42.640;23.370;2023-01-13T05:08:08;8.47;;;7.67;;
5878;SDS011;2965;42.640;23.370;2023-01-13T05:10:33;9.40;;;8.10;;
5878;SDS011;2965;42.640;23.370;2023-01-13T05:12:59;7.97;;;7.30;;
5878;SDS011;2965;42.640;23.370;2023-01-13T05:15:44;8.40;;;7.60;;
5878;SDS011;2965;42.640;23.370;2023-01-13T05:18:28;8.77;;;7.97;;
5878;SDS011;2965;42.640;23.370;2023-01-13T05:20:54;13.40;;;8.10;;
5878;SDS011;2965;42.640;23.370;2023-01-13T05:23:20;9.10;;;7.83;;
5878;SDS011;2965;42.640;23.370;2023-01-13T05:26:03;7.93;;;7.23;;
5878;SDS011;2965;42.640;23.370;2023-01-13T05:28:30;9.07;;;8.10;;
5878;SDS011;2965;42.640;23.370;2023-01-13T05:30:58;9.33;;;7.40;;
5878;SDS011;2965;42.640;23.370;2023-01-13T05:33:24;7.60;;;6.97;;
5878;SDS011;2965;42.640;23.370;2023-01-13T05:35:49;10.43;;;7.40;;
5878;SDS011;2965;42.640;23.370;2023-01-13T05:38:15;8.10;;;7.40;;
5878;SDS011;2965;42.640;23.370;2023-01-13T05:40:42;9.67;;;7.57;;
5878;SDS011;2965;42.640;23.370;2023-01-13T05:43:26;8.40;;;6.97;;
5878;SDS011;2965;42.640;23.370;2023-01-13T05:48:22;9.63;;;7.20;;
5878;SDS011;2965;42.640;23.370;2023-01-13T05:50:48;9.90;;;8.67;;
5878;SDS011;2965;42.640;23.370;2023-01-13T05:53:15;10.57;;;8.00;;
5878;SDS011;2965;42.640;23.370;2023-01-13T05:55:42;8.23;;;7.40;;
5878;SDS011;2965;42.640;23.370;2023-01-13T05:58:09;10.87;;;8.50;;
5878;SDS011;2965;42.640;23.370;2023-01-13T06:00:35;8.37;;;7.57;;
5878;SDS011;2965;42.640;23.370;2023-01-13T06:03:01;22.70;;;13.40;;
5878;SDS011;2965;42.640;23.370;2023-01-13T06:05:27;10.50;;;9.40;;
5878;SDS011;2965;42.640;23.370;2023-01-13T06:07:59;11.83;;;9.20;;
5878;SDS011;2965;42.640;23.370;2023-01-13T06:10:26;10.50;;;9.07;;
5878;SDS011;2965;42.640;23.370;2023-01-13T06:12:52;15.97;;;10.03;;
5878;SDS011;2965;42.640;23.370;2023-01-13T06:15:17;15.10;;;10.10;;
5878;SDS011;2965;42.640;23.370;2023-01-13T06:17:43;16.20;;;10.30;;
5878;SDS011;2965;42.640;23.370;2023-01-13T06:20:09;14.67;;;9.43;;
5878;SDS011;2965;42.640;23.370;2023-01-13T06:22:37;14.63;;;10.07;;
5878;SDS011;2965;42.640;23.370;2023-01-13T06:25:09;11.70;;;9.90;;
5878;SDS011;2965;42.640;23.370;2023-01-13T06:27:41;14.67;;;11.10;;
5878;SDS011;2965;42.640;23.370;2023-01-13T06:30:06;13.13;;;10.30;;
5878;SDS011;2965;42.640;23.370;2023-01-13T06:32:33;12.73;;;10.23;;
5878;SDS011;2965;42.640;23.370;2023-01-13T06:35:05;13.20;;;10.13;;
5878;SDS011;2965;42.640;23.370;2023-01-13T06:37:35;17.93;;;11.43;;
5878;SDS011;2965;42.640;23.370;2023-01-13T06:40:02;10.80;;;9.70;;
5878;SDS011;2965;42.640;23.370;2023-01-13T06:42:29;15.27;;;11.20;;
5878;SDS011;2965;42.640;23.370;2023-01-13T06:45:16;15.10;;;9.70;;
5878;SDS011;2965;42.640;23.370;2023-01-13T06:47:42;19.70;;;10.70;;
5878;SDS011;2965;42.640;23.370;2023-01-13T06:50:08;21.57;;;13.00;;
5878;SDS011;2965;42.640;23.370;2023-01-13T06:52:34;20.13;;;12.53;;
5878;SDS011;2965;42.640;23.370;2023-01-13T06:54:59;15.50;;;10.33;;
5878;SDS011;2965;42.640;23.370;2023-01-13T06:57:25;22.73;;;12.33;;
5878;SDS011;2965;42.640;23.370;2023-01-13T06:59:50;19.90;;;12.10;;
5878;SDS011;2965;42.640;23.370;2023-01-13T07:02:16;30.70;;;11.70;;
5878;SDS011;2965;42.640;23.370;2023-01-13T07:04:41;17.57;;;11.30;;
5878;SDS011;2965;42.640;23.370;2023-01-13T07:07:08;20.93;;;12.00;;
5878;SDS011;2965;42.640;23.370;2023-01-13T07:09:33;20.47;;;11.60;;
5878;SDS011;2965;42.640;23.370;2023-01-13T07:11:59;20.03;;;11.33;;
5878;SDS011;2965;42.640;23.370;2023-01-13T07:14:24;21.60;;;11.93;;
5878;SDS011;2965;42.640;23.370;2023-01-13T07:17:08;19.77;;;11.87;;
5878;SDS011;2965;42.640;23.370;2023-01-13T07:35:47;16.30;;;11.30;;
5878;SDS011;2965;42.640;23.370;2023-01-13T07:38:19;15.27;;;10.60;;
5878;SDS011;2965;42.640;23.370;2023-01-13T07:40:44;9.90;;;8.20;;
5878;SDS011;2965;42.640;23.370;2023-01-13T07:43:10;12.30;;;9.60;;
5878;SDS011;2965;42.640;23.370;2023-01-13T07:45:55;9.57;;;8.50;;
5878;SDS011;2965;42.640;23.370;2023-01-13T07:48:22;11.50;;;8.27;;
5878;SDS011;2965;42.640;23.370;2023-01-13T07:50:48;10.07;;;8.40;;
5878;SDS011;2965;42.640;23.370;2023-01-13T07:53:13;15.10;;;10.60;;
5878;SDS011;2965;42.640;23.370;2023-01-13T07:55:42;13.60;;;9.80;;
5878;SDS011;2965;42.640;23.370;2023-01-13T07:58:08;11.17;;;9.20;;
5878;SDS011;2965;42.640;23.370;2023-01-13T08:00:34;12.63;;;8.93;;
5878;SDS011;2965;42.640;23.370;2023-01-13T08:03:01;13.90;;;9.60;;
5878;SDS011;2965;42.640;23.370;2023-01-13T08:05:26;13.10;;;9.10;;
5878;SDS011;2965;42.640;23.370;2023-01-13T08:07:51;13.73;;;9.37;;
5878;SDS011;2965;42.640;23.370;2023-01-13T08:10:17;13.50;;;8.67;;
5878;SDS011;2965;42.640;23.370;2023-01-13T08:12:42;11.60;;;8.90;;
5878;SDS011;2965;42.640;23.370;2023-01-13T08:15:26;9.73;;;7.80;;
5878;SDS011;2965;42.640;23.370;2023-01-13T08:17:53;9.43;;;7.50;;
5878;SDS011;2965;42.640;23.370;2023-01-13T08:20:19;11.50;;;9.13;;
5878;SDS011;2965;42.640;23.370;2023-01-13T08:22:44;23.73;;;10.10;;
5878;SDS011;2965;42.640;23.370;2023-01-13T08:25:10;14.87;;;8.80;;
5878;SDS011;2965;42.640;23.370;2023-01-13T08:27:35;16.40;;;10.57;;
5878;SDS011;2965;42.640;23.370;2023-01-13T08:30:00;13.37;;;10.10;;
5878;SDS011;2965;42.640;23.370;2023-01-13T08:32:26;15.40;;;9.20;;
5878;SDS011;2965;42.640;23.370;2023-01-13T08:34:51;14.70;;;9.80;;
5878;SDS011;2965;42.640;23.370;2023-01-13T08:37:16;16.00;;;10.80;;
5878;SDS011;2965;42.640;23.370;2023-01-13T08:39:42;11.00;;;8.97;;
5878;SDS011;2965;42.640;23.370;2023-01-13T08:42:07;12.97;;;8.80;;
5878;SDS011;2965;42.640;23.370;2023-01-13T08:44:33;22.57;;;10.10;;
5878;SDS011;2965;42.640;23.370;2023-01-13T08:46:59;17.00;;;9.30;;
5878;SDS011;2965;42.640;23.370;2023-01-13T08:49:24;13.83;;;10.53;;
5878;SDS011;2965;42.640;23.370;2023-01-13T08:51:50;9.53;;;8.50;;
5878;SDS011;2965;42.640;23.370;2023-01-13T08:54:16;16.23;;;8.50;;
5878;SDS011;2965;42.640;23.370;2023-01-13T08:56:42;12.13;;;8.83;;
5878;SDS011;2965;42.640;23.370;2023-01-13T08:59:15;9.43;;;8.43;;
5878;SDS011;2965;42.640;23.370;2023-01-13T09:01:43;11.20;;;7.70;;
5878;SDS011;2965;42.640;23.370;2023-01-13T09:04:19;11.90;;;7.10;;
5878;SDS011;2965;42.640;23.370;2023-01-13T09:06:47;10.20;;;7.53;;
5878;SDS011;2965;42.640;23.370;2023-01-13T09:09:13;7.37;;;6.57;;
5878;SDS011;2965;42.640;23.370;2023-01-13T09:11:42;20.37;;;6.30;;
5878;SDS011;2965;42.640;23.370;2023-01-13T09:14:31;8.47;;;6.53;;
5878;SDS011;2965;42.640;23.370;2023-01-13T09:16:57;7.50;;;6.70;;
5878;SDS011;2965;42.640;23.370;2023-01-13T09:19:23;10.60;;;6.60;;
5878;SDS011;2965;42.640;23.370;2023-01-13T09:21:49;9.77;;;8.60;;
5878;SDS011;2965;42.640;23.370;2023-01-13T09:24:16;12.03;;;7.23;;
5878;SDS011;2965;42.640;23.370;2023-01-13T09:26:42;15.53;;;9.83;;
5878;SDS011;2965;42.640;23.370;2023-01-13T09:29:07;22.87;;;8.67;;
5878;SDS011;2965;42.640;23.370;2023-01-13T09:31:32;12.87;;;9.03;;
5878;SDS011;2965;42.640;23.370;2023-01-13T09:33:59;11.60;;;8.30;;
5878;SDS011;2965;42.640;23.370;2023-01-13T09:36:47;10.67;;;8.37;;
5878;SDS011;2965;42.640;23.370;2023-01-13T09:39:13;11.93;;;8.80;;
5878;SDS011;2965;42.640;23.370;2023-01-13T09:41:46;12.37;;;9.70;;
5878;SDS011;2965;42.640;23.370;2023-01-13T09:47:03;12.47;;;9.00;;
5878;SDS011;2965;42.640;23.370;2023-01-13T09:49:36;11.77;;;8.27;;
5878;SDS011;2965;42.640;23.370;2023-01-13T09:52:14;11.53;;;9.03;;
5878;SDS011;2965;42.640;23.370;2023-01-13T09:54:54;14.43;;;8.47;;
5878;SDS011;2965;42.640;23.370;2023-01-13T09:57:24;8.53;;;7.63;;
5878;SDS011;2965;42.640;23.370;2023-01-13T09:59:52;7.17;;;6.47;;
5878;SDS011;2965;42.640;23.370;2023-01-13T10:05:33;5.70;;;5.10;;
5878;SDS011;2965;42.640;23.370;2023-01-13T10:08:02;17.33;;;4.37;;
5878;SDS011;2965;42.640;23.370;2023-01-13T10:10:44;3.70;;;3.50;;
5878;SDS011;2965;42.640;23.370;2023-01-13T10:13:13;4.53;;;4.20;;
5878;SDS011;2965;42.640;23.370;2023-01-13T10:18:38;4.00;;;3.70;;
5878;SDS011;2965;42.640;23.370;2023-01-13T10:23:57;5.20;;;4.70;;
5878;SDS011;2965;42.640;23.370;2023-01-13T10:29:28;4.83;;;3.80;;
5878;SDS011;2965;42.640;23.370;2023-01-13T10:31:55;5.07;;;3.80;;
5878;SDS011;2965;42.640;23.370;2023-01-13T10:34:23;4.50;;;3.47;;
5878;SDS011;2965;42.640;23.370;2023-01-13T10:36:53;4.80;;;4.50;;
5878;SDS011;2965;42.640;23.370;2023-01-13T10:39:43;3.67;;;3.47;;
5878;SDS011;2965;42.640;23.370;2023-01-13T10:42:13;3.27;;;2.97;;
5878;SDS011;2965;42.640;23.370;2023-01-13T10:44:53;3.03;;;2.83;;
5878;SDS011;2965;42.640;23.370;2023-01-13T10:50:00;3.40;;;3.20;;
5878;SDS011;2965;42.640;23.370;2023-01-13T10:52:30;2.80;;;2.70;;
5878;SDS011;2965;42.640;23.370;2023-01-13T10:54:57;3.77;;;3.57;;
5878;SDS011;2965;42.640;23.370;2023-01-13T10:57:24;3.63;;;2.73;;
5878;SDS011;2965;42.640;23.370;2023-01-13T10:59:51;22.77;;;3.37;;
5878;SDS011;2965;42.640;23.370;2023-01-13T11:10:01;3.30;;;3.20;;
5878;SDS011;2965;42.640;23.370;2023-01-13T11:12:33;3.63;;;3.40;;
5878;SDS011;2965;42.640;23.370;2023-01-13T11:15:00;5.77;;;3.80;;
5878;SDS011;2965;42.640;23.370;2023-01-13T11:22:36;3.97;;;3.73;;
5878;SDS011;2965;42.640;23.370;2023-01-13T11:25:16;3.70;;;3.50;;
5878;SDS011;2965;42.640;23.370;2023-01-13T11:27:56;3.00;;;2.80;;
5878;SDS011;2965;42.640;23.370;2023-01-13T11:33:03;5.30;;;3.10;;
5878;SDS011;2965;42.640;23.370;2023-01-13T11:35:46;3.27;;;3.07;;
5878;SDS011;2965;42.640;23.370;2023-01-13T11:40:56;3.33;;;3.13;;
5878;SDS011;2965;42.640;23.370;2023-01-13T11:43:31;4.10;;;3.90;;
5878;SDS011;2965;42.640;23.370;2023-01-13T11:46:04;4.00;;;3.80;;
5878;SDS011;2965;42.640;23.370;2023-01-13T11:48:30;5.73;;;4.00;;
5878;SDS011;2965;42.640;23.370;2023-01-13T12:04:08;3.90;;;3.70;;
5878;SDS011;2965;42.640;23.370;2023-01-13T12:07:35;4.23;;;3.83;;
5878;SDS011;2965;42.640;23.370;2023-01-13T12:10:01;4.97;;;4.57;;
5878;SDS011;2965;42.640;23.370;2023-01-13T12:17:58;5.70;;;5.20;;
5878;SDS011;2965;42.640;23.370;2023-01-13T12:23:06;5.83;;;3.67;;
5878;SDS011;2965;42.640;23.370;2023-01-13T12:25:40;4.83;;;4.50;;
5878;SDS011;2965;42.640;23.370;2023-01-13T12:28:10;6.93;;;6.07;;
5878;SDS011;2965;42.640;23.370;2023-01-13T12:30:48;8.27;;;5.80;;
5878;SDS011;2965;42.640;23.370;2023-01-13T12:36:08;5.63;;;5.17;;
5878;SDS011;2965;42.640;23.370;2023-01-13T12:44:02;7.13;;;6.37;;
5878;SDS011;2965;42.640;23.370;2023-01-13T12:46:49;6.83;;;6.27;;
5878;SDS011;2965;42.640;23.370;2023-01-13T12:49:23;7.23;;;6.50;;
5878;SDS011;2965;42.640;23.370;2023-01-13T12:59:40;7.57;;;6.90;;
5878;SDS011;2965;42.640;23.370;2023-01-13T13:15:31;10.07;;;7.80;;
5878;SDS011;2965;42.640;23.370;2023-01-13T13:20:56;9.63;;;8.30;;
5878;SDS011;2965;42.640;23.370;2023-01-13T13:28:51;8.70;;;7.80;;
5878;SDS011;2965;42.640;23.370;2023-01-13T13:34:27;8.97;;;8.07;;
5878;SDS011;2965;42.640;23.370;2023-01-13T13:40:19;9.50;;;8.50;;
5878;SDS011;2965;42.640;23.370;2023-01-13T13:43:04;8.40;;;7.60;;
5878;SDS011;2965;42.640;23.370;2023-01-13T13:45:54;8.47;;;7.43;;
5878;SDS011;2965;42.640;23.370;2023-01-13T13:48:38;10.83;;;7.50;;
5878;SDS011;2965;42.640;23.370;2023-01-13T13:51:19;9.27;;;8.33;;
5878;SDS011;2965;42.640;23.370;2023-01-13T13:53:49;8.10;;;7.30;;
5878;SDS011;2965;42.640;23.370;2023-01-13T13:56:17;8.73;;;7.93;;
5878;SDS011;2965;42.640;23.370;2023-01-13T13:58:47;8.33;;;7.63;;
5878;SDS011;2965;42.640;23.370;2023-01-13T14:01:24;9.40;;;8.30;;
5878;SDS011;2965;42.640;23.370;2023-01-13T14:06:55;8.70;;;7.90;;
5878;SDS011;2965;42.640;23.370;2023-01-13T14:09:26;8.90;;;8.10;;
5878;SDS011;2965;42.640;23.370;2023-01-13T14:12:02;12.73;;;8.47;;
5878;SDS011;2965;42.640;23.370;2023-01-13T14:14:30;12.43;;;8.33;;
5878;SDS011;2965;42.640;23.370;2023-01-13T14:16:56;14.03;;;8.17;;
5878;SDS011;2965;42.640;23.370;2023-01-13T14:21:53;12.07;;;9.27;;
5878;SDS011;2965;42.640;23.370;2023-01-13T14:24:19;9.00;;;8.20;;
5878;SDS011;2965;42.640;23.370;2023-01-13T14:26:46;9.27;;;8.37;;
5878;SDS011;2965;42.640;23.370;2023-01-13T14:29:17;9.10;;;7.30;;
5878;SDS011;2965;42.640;23.370;2023-01-13T14:31:45;12.07;;;8.33;;
5878;SDS011;2965;42.640;23.370;2023-01-13T14:34:12;9.87;;;8.40;;
5878;SDS011;2965;42.640;23.370;2023-01-13T14:36:38;9.20;;;8.17;;
5878;SDS011;2965;42.640;23.370;2023-01-13T14:42:09;10.20;;;8.87;;
5878;SDS011;2965;42.640;23.370;2023-01-13T14:44:35;11.20;;;8.33;;
5878;SDS011;2965;42.640;23.370;2023-01-13T14:47:02;12.47;;;9.10;;
5878;SDS011;2965;42.640;23.370;2023-01-13T14:49:42;11.00;;;8.27;;
5878;SDS011;2965;42.640;23.370;2023-01-13T14:52:19;12.80;;;9.10;;
5878;SDS011;2965;42.640;23.370;2023-01-13T14:54:51;11.70;;;9.30;;
5878;SDS011;2965;42.640;23.370;2023-01-13T14:57:34;12.00;;;9.00;;
5878;SDS011;2965;42.640;23.370;2023-01-13T15:07:52;10.70;;;9.10;;
5878;SDS011;2965;42.640;23.370;2023-01-13T15:10:21;17.73;;;11.17;;
5878;SDS011;2965;42.640;23.370;2023-01-13T15:12:50;12.43;;;9.73;;
5878;SDS011;2965;42.640;23.370;2023-01-13T15:17:45;15.97;;;9.93;;
5878;SDS011;2965;42.640;23.370;2023-01-13T15:20:14;15.53;;;9.63;;
5878;SDS011;2965;42.640;23.370;2023-01-13T15:22:43;13.33;;;10.13;;
5878;SDS011;2965;42.640;23.370;2023-01-13T15:25:09;15.17;;;10.90;;
5878;SDS011;2965;42.640;23.370;2023-01-13T15:27:35;11.27;;;9.53;;
5878;SDS011;2965;42.640;23.370;2023-01-13T15:30:02;12.20;;;9.33;;
5878;SDS011;2965;42.640;23.370;2023-01-13T15:32:36;15.03;;;9.90;;
5878;SDS011;2965;42.640;23.370;2023-01-13T15:35:02;17.27;;;9.03;;
5878;SDS011;2965;42.640;23.370;2023-01-13T15:37:28;13.57;;;9.80;;
5878;SDS011;2965;42.640;23.370;2023-01-13T15:39:53;12.00;;;10.13;;
5878;SDS011;2965;42.640;23.370;2023-01-13T15:42:18;15.03;;;10.43;;
5878;SDS011;2965;42.640;23.370;2023-01-13T15:45:02;14.13;;;10.10;;
5878;SDS011;2965;42.640;23.370;2023-01-13T15:47:46;10.27;;;9.20;;
5878;SDS011;2965;42.640;23.370;2023-01-13T15:50:15;9.70;;;8.60;;
5878;SDS011;2965;42.640;23.370;2023-01-13T15:52:42;16.07;;;9.00;;
5878;SDS011;2965;42.640;23.370;2023-01-13T15:55:08;12.80;;;9.77;;
5878;SDS011;2965;42.640;23.370;2023-01-13T15:57:34;20.13;;;10.00;;
5878;SDS011;2965;42.640;23.370;2023-01-13T16:00:03;15.80;;;9.60;;
5878;SDS011;2965;42.640;23.370;2023-01-13T16:02:32;14.73;;;10.90;;
5878;SDS011;2965;42.640;23.370;2023-01-13T16:04:58;16.43;;;12.63;;
5878;SDS011;2965;42.640;23.370;2023-01-13T16:07:23;22.33;;;14.50;;
5878;SDS011;2965;42.640;23.370;2023-01-13T16:09:49;21.10;;;14.37;;
5878;SDS011;2965;42.640;23.370;2023-01-13T16:12:15;22.17;;;13.20;;
5878;SDS011;2965;42.640;23.370;2023-01-13T16:14:41;24.40;;;14.80;;
5878;SDS011;2965;42.640;23.370;2023-01-13T16:17:12;29.83;;;14.53;;
5878;SDS011;2965;42.640;23.370;2023-01-13T16:19:42;22.03;;;15.60;;
5878;SDS011;2965;42.640;23.370;2023-01-13T16:22:12;28.50;;;17.20;;
5878;SDS011;2965;42.640;23.370;2023-01-13T16:24:38;23.37;;;15.97;;
5878;SDS011;2965;42.640;23.370;2023-01-13T16:27:09;22.30;;;15.80;;
5878;SDS011;2965;42.640;23.370;2023-01-13T16:29:43;26.47;;;16.03;;
5878;SDS011;2965;42.640;23.370;2023-01-13T16:32:09;21.40;;;14.20;;
5878;SDS011;2965;42.640;23.370;2023-01-13T16:34:34;26.63;;;15.00;;
5878;SDS011;2965;42.640;23.370;2023-01-13T16:37:00;24.60;;;15.10;;
5878;SDS011;2965;42.640;23.370;2023-01-13T16:39:25;24.47;;;14.43;;
5878;SDS011;2965;42.640;23.370;2023-01-13T16:41:51;20.50;;;13.27;;
5878;SDS011;2965;42.640;23.370;2023-01-13T16:44:16;20.97;;;14.10;;
5878;SDS011;2965;42.640;23.370;2023-01-13T16:46:42;19.70;;;13.10;;
5878;SDS011;2965;42.640;23.370;2023-01-13T16:49:09;19.33;;;13.10;;
5878;SDS011;2965;42.640;23.370;2023-01-13T16:51:37;22.27;;;13.77;;
5878;SDS011;2965;42.640;23.370;2023-01-13T16:54:02;20.33;;;14.00;;
5878;SDS011;2965;42.640;23.370;2023-01-13T16:56:32;20.93;;;12.87;;
5878;SDS011;2965;42.640;23.370;2023-01-13T16:58:59;19.33;;;11.87;;
5878;SDS011;2965;42.640;23.370;2023-01-13T17:01:30;16.73;;;12.43;;
5878;SDS011;2965;42.640;23.370;2023-01-13T17:03:57;20.20;;;13.27;;
5878;SDS011;2965;42.640;23.370;2023-01-13T17:08:58;14.83;;;10.23;;
5878;SDS011;2965;42.640;23.370;2023-01-13T17:11:28;23.83;;;12.00;;
5878;SDS011;2965;42.640;23.370;2023-01-13T17:13:53;19.07;;;11.90;;
5878;SDS011;2965;42.640;23.370;2023-01-13T17:16:20;16.57;;;12.00;;
5878;SDS011;2965;42.640;23.370;2023-01-13T17:18:46;17.50;;;11.10;;
5878;SDS011;2965;42.640;23.370;2023-01-13T17:21:12;17.43;;;11.60;;
5878;SDS011;2965;42.640;23.370;2023-01-13T17:23:38;20.47;;;11.90;;
5878;SDS011;2965;42.640;23.370;2023-01-13T17:26:04;14.30;;;11.30;;
5878;SDS011;2965;42.640;23.370;2023-01-13T17:28:30;23.43;;;10.30;;
5878;SDS011;2965;42.640;23.370;2023-01-13T17:30:55;14.07;;;10.80;;
5878;SDS011;2965;42.640;23.370;2023-01-13T17:33:20;13.13;;;10.93;;
5878;SDS011;2965;42.640;23.370;2023-01-13T17:35:46;16.23;;;11.57;;
5878;SDS011;2965;42.640;23.370;2023-01-13T17:38:11;18.43;;;11.20;;
5878;SDS011;2965;42.640;23.370;2023-01-13T17:40:36;15.53;;;10.97;;
5878;SDS011;2965;42.640;23.370;2023-01-13T17:43:02;18.10;;;12.23;;
5878;SDS011;2965;42.640;23.370;2023-01-13T17:45:28;14.53;;;10.63;;
5878;SDS011;2965;42.640;23.370;2023-01-13T17:47:56;20.17;;;11.20;;
5878;SDS011;2965;42.640;23.370;2023-01-13T17:50:22;25.47;;;14.40;;
5878;SDS011;2965;42.640;23.370;2023-01-13T17:52:48;32.67;;;15.53;;
5878;SDS011;2965;42.640;23.370;2023-01-13T17:55:13;31.50;;;18.10;;
5878;SDS011;2965;42.640;23.370;2023-01-13T17:57:39;46.73;;;19.07;;
5878;SDS011;2965;42.640;23.370;2023-01-13T18:00:04;43.80;;;19.37;;
5878;SDS011;2965;42.640;23.370;2023-01-13T18:02:30;34.90;;;18.50;;
5878;SDS011;2965;42.640;23.370;2023-01-13T18:04:57;33.77;;;17.57;;
5878;SDS011;2965;42.640;23.370;2023-01-13T18:07:22;34.30;;;16.97;;
5878;SDS011;2965;42.640;23.370;2023-01-13T18:09:48;32.53;;;16.43;;
5878;SDS011;2965;42.640;23.370;2023-01-13T18:12:13;24.43;;;13.60;;
5878;SDS011;2965;42.640;23.370;2023-01-13T18:14:38;23.60;;;14.30;;
5878;SDS011;2965;42.640;23.370;2023-01-13T18:17:04;26.83;;;13.73;;
5878;SDS011;2965;42.640;23.370;2023-01-13T18:19:30;30.73;;;15.33;;
5878;SDS011;2965;42.640;23.370;2023-01-13T18:22:16;29.73;;;14.80;;
5878;SDS011;2965;42.640;23.370;2023-01-13T18:25:05;18.90;;;12.20;;
5878;SDS011;2965;42.640;23.370;2023-01-13T18:27:52;20.23;;;12.77;;
5878;SDS011;2965;42.640;23.370;2023-01-13T18:30:17;27.80;;;15.83;;
5878;SDS011;2965;42.640;23.370;2023-01-13T18:32:42;40.83;;;16.13;;
5878;SDS011;2965;42.640;23.370;2023-01-13T18:35:08;25.07;;;14.27;;
5878;SDS011;2965;42.640;23.370;2023-01-13T18:37:34;25.20;;;14.70;;
5878;SDS011;2965;42.640;23.370;2023-01-13T18:40:03;27.30;;;15.60;;
5878;SDS011;2965;42.640;23.370;2023-01-13T18:42:29;26.80;;;14.67;;
5878;SDS011;2965;42.640;23.370;2023-01-13T18:45:13;28.87;;;14.10;;
5878;SDS011;2965;42.640;23.370;2023-01-13T18:47:38;36.90;;;16.03;;
5878;SDS011;2965;42.640;23.370;2023-01-13T18:50:06;27.00;;;13.83;;
5878;SDS011;2965;42.640;23.370;2023-01-13T18:52:33;35.87;;;16.70;;
5878;SDS011;2965;42.640;23.370;2023-01-13T18:54:59;28.97;;;14.73;;
5878;SDS011;2965;42.640;23.370;2023-01-13T18:57:25;27.73;;;14.60;;
5878;SDS011;2965;42.640;23.370;2023-01-13T18:59:50;22.50;;;13.93;;
5878;SDS011;2965;42.640;23.370;2023-01-13T19:02:16;33.50;;;14.53;;
5878;SDS011;2965;42.640;23.370;2023-01-13T19:04:43;27.80;;;16.43;;
5878;SDS011;2965;42.640;23.370;2023-01-13T19:07:10;37.53;;;17.07;;
5878;SDS011;2965;42.640;23.370;2023-01-13T19:09:37;29.97;;;16.30;;
5878;SDS011;2965;42.640;23.370;2023-01-13T19:12:03;39.73;;;20.20;;
5878;SDS011;2965;42.640;23.370;2023-01-13T19:14:33;39.33;;;19.40;;
5878;SDS011;2965;42.640;23.370;2023-01-13T19:17:05;57.13;;;20.33;;
5878;SDS011;2965;42.640;23.370;2023-01-13T19:19:39;43.60;;;22.03;;
5878;SDS011;2965;42.640;23.370;2023-01-13T19:22:07;45.90;;;21.73;;
5878;SDS011;2965;42.640;23.370;2023-01-13T19:24:33;24.47;;;15.80;;
5878;SDS011;2965;42.640;23.370;2023-01-13T19:26:58;31.70;;;14.43;;
5878;SDS011;2965;42.640;23.370;2023-01-13T19:29:24;28.43;;;16.17;;
5878;SDS011;2965;42.640;23.370;2023-01-13T19:31:49;26.73;;;14.47;;
5878;SDS011;2965;42.640;23.370;2023-01-13T19:34:15;34.37;;;16.27;;
5878;SDS011;2965;42.640;23.370;2023-01-13T19:36:40;36.63;;;19.67;;
5878;SDS011;2965;42.640;23.370;2023-01-13T19:39:06;42.47;;;19.83;;
5878;SDS011;2965;42.640;23.370;2023-01-13T19:41:32;41.50;;;21.20;;
5878;SDS011;2965;42.640;23.370;2023-01-13T19:44:16;39.83;;;20.70;;
5878;SDS011;2965;42.640;23.370;2023-01-13T19:47:00;39.63;;;21.43;;
5878;SDS011;2965;42.640;23.370;2023-01-13T19:49:27;33.10;;;19.23;;
5878;SDS011;2965;42.640;23.370;2023-01-13T19:51:53;39.00;;;21.73;;
5878;SDS011;2965;42.640;23.370;2023-01-13T19:54:18;45.70;;;21.37;;
5878;SDS011;2965;42.640;23.370;2023-01-13T19:56:43;43.40;;;22.70;;
5878;SDS011;2965;42.640;23.370;2023-01-13T19:59:09;40.30;;;19.13;;
5878;SDS011;2965;42.640;23.370;2023-01-13T20:01:37;37.53;;;20.33;;
5878;SDS011;2965;42.640;23.370;2023-01-13T20:04:05;35.80;;;19.80;;
5878;SDS011;2965;42.640;23.370;2023-01-13T20:06:38;43.10;;;19.70;;
5878;SDS011;2965;42.640;23.370;2023-01-13T20:09:04;42.83;;;20.33;;
5878;SDS011;2965;42.640;23.370;2023-01-13T20:11:29;33.43;;;18.97;;
5878;SDS011;2965;42.640;23.370;2023-01-13T20:13:56;37.10;;;19.40;;
5878;SDS011;2965;42.640;23.370;2023-01-13T20:16:23;46.10;;;22.13;;
5878;SDS011;2965;42.640;23.370;2023-01-13T20:18:49;36.93;;;19.63;;
5878;SDS011;2965;42.640;23.370;2023-01-13T20:21:15;36.20;;;18.23;;
5878;SDS011;2965;42.640;23.370;2023-01-13T20:23:41;39.93;;;19.50;;
5878;SDS011;2965;42.640;23.370;2023-01-13T20:26:08;34.57;;;19.93;;
5878;SDS011;2965;42.640;23.370;2023-01-13T20:28:34;38.67;;;20.17;;
5878;SDS011;2965;42.640;23.370;2023-01-13T20:31:07;36.23;;;18.83;;
5878;SDS011;2965;42.640;23.370;2023-01-13T20:33:34;33.20;;;18.47;;
5878;SDS011;2965;42.640;23.370;2023-01-13T20:36:00;37.20;;;19.70;;
5878;SDS011;2965;42.640;23.370;2023-01-13T20:38:25;33.87;;;18.23;;
5878;SDS011;2965;42.640;23.370;2023-01-13T20:41:00;29.73;;;17.30;;
5878;SDS011;2965;42.640;23.370;2023-01-13T20:43:47;29.47;;;17.20;;
5878;SDS011;2965;42.640;23.370;2023-01-13T20:46:19;27.13;;;16.93;;
5878;SDS011;2965;42.640;23.370;2023-01-13T20:48:46;30.70;;;17.70;;
5878;SDS011;2965;42.640;23.370;2023-01-13T20:51:12;30.60;;;17.27;;
5878;SDS011;2965;42.640;23.370;2023-01-13T20:53:37;32.27;;;17.87;;
5878;SDS011;2965;42.640;23.370;2023-01-13T20:56:06;33.17;;;16.10;;
5878;SDS011;2965;42.640;23.370;2023-01-13T20:58:32;30.80;;;16.27;;
5878;SDS011;2965;42.640;23.370;2023-01-13T21:00:58;33.63;;;15.93;;
5878;SDS011;2965;42.640;23.370;2023-01-13T21:03:23;33.50;;;19.00;;
5878;SDS011;2965;42.640;23.370;2023-01-13T21:05:49;30.63;;;16.93;;
5878;SDS011;2965;42.640;23.370;2023-01-13T21:08:14;32.70;;;17.63;;
5878;SDS011;2965;42.640;23.370;2023-01-13T21:10:40;34.50;;;17.90;;
5878;SDS011;2965;42.640;23.370;2023-01-13T21:13:05;40.47;;;18.17;;
5878;SDS011;2965;42.640;23.370;2023-01-13T21:18:29;27.00;;;16.60;;
5878;SDS011;2965;42.640;23.370;2023-01-13T21:21:12;27.80;;;15.97;;
5878;SDS011;2965;42.640;23.370;2023-01-13T21:23:38;29.20;;;16.90;;
5878;SDS011;2965;42.640;23.370;2023-01-13T21:26:06;31.80;;;17.20;;
5878;SDS011;2965;42.640;23.370;2023-01-13T21:28:32;26.90;;;18.07;;
5878;SDS011;2965;42.640;23.370;2023-01-13T21:31:03;38.30;;;20.00;;
5878;SDS011;2965;42.640;23.370;2023-01-13T21:33:29;46.50;;;22.60;;
5878;SDS011;2965;42.640;23.370;2023-01-13T21:35:55;32.30;;;19.07;;
5878;SDS011;2965;42.640;23.370;2023-01-13T21:38:20;32.00;;;18.00;;
5878;SDS011;2965;42.640;23.370;2023-01-13T21:40:54;32.37;;;18.13;;
5878;SDS011;2965;42.640;23.370;2023-01-13T21:43:21;32.00;;;19.07;;
5878;SDS011;2965;42.640;23.370;2023-01-13T21:46:09;37.97;;;19.90;;
5878;SDS011;2965;42.640;23.370;2023-01-13T21:48:59;42.40;;;23.00;;
5878;SDS011;2965;42.640;23.370;2023-01-13T21:51:25;35.13;;;19.10;;
5878;SDS011;2965;42.640;23.370;2023-01-13T21:53:51;34.33;;;19.80;;
5878;SDS011;2965;42.640;23.370;2023-01-13T21:56:16;32.77;;;19.60;;
5878;SDS011;2965;42.640;23.370;2023-01-13T21:58:42;37.47;;;19.70;;
